Flight Briefing for CMB803

Departure Arrival
Norfolk Naval Station (Chambers Field) (KNGU)
Click to view FAA NOTAMS
Guantánamo Bay Naval Air Station (MUGM)
Click to view FAA NOTAMS
Departure Time Arrival Time
N/A N/A
Aircraft Distance
B757-200SF 1025.27nm
Departure METAR Arrival METAR
KNGU 230659Z 00000KT 10SM FEW280 16/10 A3026 RMK AO2 SLP248 T01560100 MUGM 230656Z 33010KT 9999 FEW030 FEW130 BKN280 26/26 A2996 RMK SLP145 T02560256
Suggested Route
SWOPE ECG DIW IDOLS Y323 CARPX AR3 NUCAR Y374 RUMFO ZIN EASTP SOUTP SOUTP2


View recent IFR Routes data
Notes
USTRANSCOM CONTRACT FLIGHT | OVERFLIGHT OF CUBA PROHIBITED, SOUTP & EASTP FIXES MANDATORY

Charts and Procedures

Charts for KNGU
No chart available
Charts for MUGM
No chart available

Windy.com Weather Map